Time;durP1;ratioP1;P1;durP2;ratioP2;P2;SDS_P1;SDS_P2;PMS_P1;PMS_P2;Temp;Humidity;BMP_temperature;BMP_pressure;BME280_temperature;BME280_humidity;BME280_pressure;Samples;Min_cycle;Max_cycle;Signal;HPM_P1;HPM_P2
2024/01/20 00:00:18;;;;;;;;;27.00;26.00;;;;;14.07;58.48;100564.28;146600;641;46024;-71
2024/01/20 00:03:36;;;;;;;;;;;;;;;;;;;;;
2024/01/20 00:06:33;;;;;;;;;46.50;37.25;;;;;13.90;59.32;100578.47;146605;642;47010;-71
2024/01/20 00:09:38;;;;;;;;;50.25;40.25;;;;;12.92;58.85;100443.81;146600;600;47012;-72
2024/01/20 00:12:34;;;;;;;;;47.75;38.25;;;;;13.73;60.12;100598.72;146605;611;46020;-72
2024/01/20 00:15:36;;;;;;;;;56.50;46.25;;;;;13.73;60.08;100596.09;146598;582;47035;-72
2024/01/20 00:18:38;;;;;;;;;60.00;46.75;;;;;13.72;60.29;100602.16;146601;590;46020;-71
2024/01/20 00:21:47;;;;;;;;;54.50;43.25;;;;;12.25;58.95;100352.84;146598;656;46016;-72
2024/01/20 00:24:43;;;;;;;;;45.75;38.25;;;;;13.57;60.85;100587.72;146599;613;46916;-69
2024/01/20 00:27:49;;;;;;;;;53.00;42.50;;;;;13.46;60.88;100577.72;146602;569;47014;-70
2024/01/20 00:31:07;;;;;;;;;37.75;28.00;;;;;13.31;61.07;100583.28;146603;593;46029;-68
2024/01/20 00:34:11;;;;;;;;;9.25;8.00;;;;;13.20;61.29;100576.72;146600;597;46016;-70
2024/01/20 00:37:07;;;;;;;;;6.75;6.00;;;;;13.16;61.16;100586.13;146605;652;46020;-71
2024/01/20 00:40:11;;;;;;;;;25.50;24.00;;;;;13.23;60.49;100582.06;146600;610;46016;-70
2024/01/20 00:43:07;;;;;;;;;4.25;4.25;;;;;13.31;60.54;100584.16;146608;577;46020;-71
2024/01/20 00:46:25;;;;;;;;;6.75;4.00;;;;;13.34;60.20;100579.06;146598;633;46017;-69
2024/01/20 00:49:23;;;;;;;;;10.00;8.75;;;;;13.35;60.23;100570.41;146600;589;47010;-70
2024/01/20 00:52:18;;;;;;;;;23.75;18.75;;;;;13.42;60.51;100576.72;146598;565;46016;-69
2024/01/20 00:55:20;;;;;;;;;23.75;20.50;;;;;13.47;60.58;100583.00;146606;563;47010;-72
2024/01/20 00:58:18;;;;;;;;;15.00;13.00;;;;;13.49;59.87;100585.66;146596;736;47016;-74
2024/01/20 01:01:27;;;;;;;;;8.75;6.50;;;;;12.55;59.32;100406.84;146604;570;46011;-72
2024/01/20 01:04:43;;;;;;;;;5.00;3.50;;;;;12.80;60.01;100443.34;146599;598;46917;-71
2024/01/20 01:07:44;;;;;;;;;3.00;2.00;;;;;13.57;60.47;100568.59;146604;635;46021;-72
2024/01/20 01:10:45;;;;;;;;;16.25;11.50;;;;;13.64;59.89;100565.38;146598;587;46016;-73
2024/01/20 01:13:46;;;;;;;;;18.25;16.50;;;;;13.75;59.75;100569.28;146605;610;46010;-75
2024/01/20 01:16:58;;;;;;;;;38.50;32.50;;;;;13.81;59.61;100559.06;146596;615;47010;-73
2024/01/20 01:20:10;;;;;;;;;36.75;30.25;;;;;13.87;58.79;100576.66;146604;629;46020;-74
2024/01/20 01:23:08;;;;;;;;;19.50;17.00;;;;;13.89;59.88;100581.91;146601;574;46013;-74
2024/01/20 01:26:17;;;;;;;;;21.25;20.75;;;;;13.93;59.81;100575.97;146602;564;46600;-72
2024/01/20 01:29:09;;;;;;;;;16.50;10.00;;;;;13.88;60.26;100574.94;146600;568;46032;-73
2024/01/20 01:32:32;;;;;;;;;25.75;23.50;;;;;13.14;60.00;100455.03;146605;607;46021;-73
2024/01/20 01:35:28;;;;;;;;;;;;;;;;;;;;;
2024/01/20 01:38:40;;;;;;;;;;;;;;;;;;;;;
2024/01/20 01:41:51;;;;;;;;;2.00;1.00;;;;;13.54;61.58;100551.12;146632;569;46010;-69
2024/01/20 01:44:57;;;;;;;;;2.67;2.00;;;;;13.53;61.29;100557.19;146626;628;46033;-69
2024/01/20 01:47:55;;;;;;;;;3.00;2.33;;;;;13.53;61.59;100562.41;146631;577;46021;-71
2024/01/20 01:50:53;;;;;;;;;1.33;1.00;;;;;13.53;61.83;100553.72;146625;565;46012;-70
2024/01/20 01:53:58;;;;;;;;;5.00;1.33;;;;;13.47;62.04;100543.94;146629;607;46018;-70
2024/01/20 01:57:03;;;;;;;;;1.67;1.67;;;;;13.43;61.42;100536.84;146623;584;47026;-70
2024/01/20 02:00:22;;;;;;;;;1.00;1.00;;;;;13.41;62.19;100541.13;146632;699;46010;-71
2024/01/20 02:03:39;;;;;;;;;;;;;;;;;;;;;
2024/01/20 02:06:45;;;;;;;;;0.25;0.25;;;;;13.46;61.21;100530.84;146624;634;46020;-70
2024/01/20 02:09:42;;;;;;;;;0.67;0.67;;;;;13.53;61.53;100541.56;146623;595;46017;-71
2024/01/20 02:12:43;;;;;;;;;2.00;2.00;;;;;13.60;60.99;100534.84;146627;581;46021;-72
2024/01/20 02:16:04;;;;;;;;;;;;;;;;;;;;;
2024/01/20 02:19:16;;;;;;;;;7.25;5.50;;;;;13.70;61.57;100523.03;146628;583;46021;-68
2024/01/20 02:22:23;;;;;;;;;3.75;2.75;;;;;13.76;60.83;100525.84;146622;583;47012;-68
2024/01/20 02:25:31;;;;;;;;;4.33;2.00;;;;;13.83;60.87;100530.44;146631;565;47010;-67
2024/01/20 02:28:24;;;;;;;;;3.67;2.67;;;;;13.89;60.66;100534.97;146626;592;46012;-70
2024/01/20 02:31:28;;;;;;;;;2.00;2.00;;;;;13.88;61.00;100535.84;146628;630;46015;-70
2024/01/20 02:34:34;;;;;;;;;3.00;2.75;;;;;13.17;59.78;100414.34;146622;582;46016;-71
2024/01/20 02:37:38;;;;;;;;;8.50;6.00;;;;;13.84;61.35;100534.84;146621;670;46020;-71
2024/01/20 02:40:36;;;;;;;;;4.75;3.00;;;;;13.78;61.28;100542.44;146617;569;46014;-71
2024/01/20 02:43:41;;;;;;;;;19.25;18.00;;;;;13.77;60.83;100543.25;146619;572;48010;-73
2024/01/20 02:46:38;;;;;;;;;12.50;12.25;;;;;13.75;60.97;100552.75;146612;638;46012;-70
2024/01/20 02:49:31;;;;;;;;;6.50;5.25;;;;;13.76;61.65;100552.78;146611;623;46021;-70
2024/01/20 02:52:32;;;;;;;;;9.25;8.25;;;;;13.78;61.62;100558.97;146616;578;46034;-70
2024/01/20 02:55:39;;;;;;;;;10.50;8.00;;;;;13.77;61.88;100564.09;146620;697;46029;-72
2024/01/20 02:58:30;;;;;;;;;5.75;5.00;;;;;13.68;62.32;100556.88;146620;569;46016;-73
2024/01/20 03:01:32;;;;;;;;;5.00;4.00;;;;;13.60;62.65;100563.50;146623;638;46010;-74
2024/01/20 03:04:34;;;;;;;;;4.75;4.00;;;;;13.52;62.00;100571.06;146617;616;46012;-73
2024/01/20 03:07:42;;;;;;;;;5.75;4.25;;;;;13.51;63.45;100582.28;146620;597;46020;-73
2024/01/20 03:10:51;;;;;;;;;7.00;7.00;;;;;13.51;62.38;100571.88;146615;723;46017;-73
2024/01/20 03:14:14;;;;;;;;;9.50;7.25;;;;;13.50;62.60;100585.72;146619;676;46020;-74
2024/01/20 03:17:07;;;;;;;;;9.75;8.00;;;;;13.48;63.90;100595.19;146614;596;46017;-74
2024/01/20 03:20:03;;;;;;;;;8.00;7.25;;;;;13.48;64.03;100579.56;146620;618;46020;-73
2024/01/20 03:23:06;;;;;;;;;11.00;9.50;;;;;13.48;63.31;100594.31;146615;595;46016;-72
2024/01/20 03:26:17;;;;;;;;;8.75;8.75;;;;;13.46;62.63;100568.22;146621;570;46010;-74
2024/01/20 03:29:27;;;;;;;;;12.00;11.25;;;;;13.43;62.49;100575.00;146616;593;46016;-72
2024/01/20 03:32:29;;;;;;;;;14.50;12.75;;;;;13.42;63.74;100573.25;146614;589;46011;-72
2024/01/20 03:35:31;;;;;;;;;9.25;9.00;;;;;13.43;64.12;100570.72;146635;571;45012;-73
2024/01/20 03:38:29;;;;;;;;;7.50;6.00;;;;;13.46;64.03;100573.44;146642;661;45029;-73
2024/01/20 03:41:27;;;;;;;;;30.25;27.25;;;;;13.51;63.96;100577.06;146638;578;46012;-73
2024/01/20 03:44:23;;;;;;;;;13.00;13.00;;;;;13.55;63.70;100575.47;146633;593;45030;-73
2024/01/20 03:47:33;;;;;;;;;15.75;13.50;;;;;13.60;62.85;100571.31;146631;573;45013;-72
2024/01/20 03:50:25;;;;;;;;;29.25;26.75;;;;;13.66;62.78;100574.16;146634;639;45010;-71
2024/01/20 03:53:56;;;;;;;;;24.25;21.50;;;;;13.72;61.94;100582.19;146629;594;46914;-72
2024/01/20 03:57:05;;;;;;;;;24.75;24.50;;;;;13.77;61.37;100564.09;146635;652;45020;-72
2024/01/20 04:00:04;;;;;;;;;16.50;16.00;;;;;13.84;61.76;100568.72;146629;606;47013;-73
2024/01/20 04:03:02;;;;;;;;;6.50;6.00;;;;;13.93;61.46;100563.84;146636;687;45010;-73
2024/01/20 04:06:01;;;;;;;;;4.67;2.67;;;;;14.04;60.55;100553.75;146641;641;45033;-78
2024/01/20 04:09:12;;;;;;;;;6.75;5.75;;;;;14.21;59.04;100547.41;146644;716;46010;-80
2024/01/20 04:12:18;;;;;;;;;7.00;6.25;;;;;14.43;58.54;100559.44;146636;597;46012;-79
2024/01/20 04:15:17;;;;;;;;;5.00;3.75;;;;;14.60;58.16;100559.13;146642;564;45021;-72
2024/01/20 04:18:23;;;;;;;;;21.00;20.75;;;;;14.75;57.27;100564.84;146631;613;46912;-73
2024/01/20 04:21:40;;;;;;;;;6.00;5.50;;;;;14.87;57.33;100565.25;146637;564;45010;-73
2024/01/20 04:24:52;;;;;;;;;12.00;9.75;;;;;14.98;56.75;100576.00;146634;621;46012;-73
2024/01/20 04:27:50;;;;;;;;;7.00;6.00;;;;;15.12;56.43;100581.66;146645;588;45010;-73
2024/01/20 04:30:57;;;;;;;;;7.00;7.00;;;;;15.22;55.91;100573.25;146637;627;46013;-73
2024/01/20 04:34:08;;;;;;;;;21.25;21.00;;;;;15.30;55.73;100581.34;146631;566;46010;-72
2024/01/20 04:37:10;;;;;;;;;16.75;12.75;;;;;15.38;55.57;100585.03;146610;587;46012;-72
2024/01/20 04:40:08;;;;;;;;;11.00;9.00;;;;;15.41;56.04;100585.13;146613;574;46010;-72
2024/01/20 04:43:15;;;;;;;;;24.25;20.25;;;;;14.23;55.40;100383.16;146617;598;46012;-73
2024/01/20 04:46:11;;;;;;;;;13.00;13.00;;;;;15.42;55.95;100582.59;146613;609;48010;-74
2024/01/20 04:49:05;;;;;;;;;9.00;7.00;;;;;15.41;55.91;100586.00;146613;662;46016;-74
2024/01/20 04:52:11;;;;;;;;;11.50;10.00;;;;;15.42;55.62;100585.19;146621;597;46020;-75
2024/01/20 04:55:28;;;;;;;;;13.00;10.00;;;;;15.40;55.66;100586.00;146609;680;47012;-75
2024/01/20 04:58:25;;;;;;;;;7.00;4.67;;;;;15.37;56.06;100575.44;146617;574;46022;-77
2024/01/20 05:01:21;;;;;;;;;5.50;5.50;;;;;15.34;56.15;100584.06;146618;631;46916;-72
2024/01/20 05:04:18;;;;;;;;;13.50;12.50;;;;;15.30;56.42;100578.72;146617;606;46020;-74
2024/01/20 05:07:30;;;;;;;;;44.00;33.50;;;;;15.28;57.16;100570.81;146609;611;46016;-72
2024/01/20 05:10:30;;;;;;;;;9.25;8.00;;;;;15.23;57.31;100568.09;146616;585;46020;-74
2024/01/20 05:13:29;;;;;;;;;11.25;10.00;;;;;15.16;57.60;100558.28;146615;596;46012;-72
2024/01/20 05:16:35;;;;;;;;;6.00;5.00;;;;;15.10;57.63;100552.00;146617;609;46020;-74
2024/01/20 05:19:34;;;;;;;;;11.50;10.25;;;;;15.05;58.28;100548.38;146616;615;47012;-73
2024/01/20 05:22:52;;;;;;;;;9.50;9.50;;;;;15.02;58.76;100549.16;146614;611;46010;-72
2024/01/20 05:25:49;;;;;;;;;10.00;8.00;;;;;14.97;58.27;100548.13;146615;719;46016;-72
2024/01/20 05:29:12;;;;;;;;;8.50;7.00;;;;;14.97;58.45;100556.84;146622;672;46010;-71
2024/01/20 05:32:07;;;;;;;;;8.75;6.50;;;;;14.99;58.67;100555.19;146619;581;46012;-73
2024/01/20 05:35:07;;;;;;;;;6.75;6.00;;;;;15.01;58.45;100544.75;146619;676;46020;-72
2024/01/20 05:38:08;;;;;;;;;16.00;12.00;;;;;15.01;58.60;100527.41;146617;627;46918;-72
2024/01/20 05:41:00;;;;;;;;;10.00;8.25;;;;;15.01;58.22;100523.88;146614;600;46010;-71
2024/01/20 05:44:03;;;;;;;;;11.75;11.25;;;;;15.06;58.17;100527.53;146616;580;46015;-72
2024/01/20 05:47:04;;;;;;;;;18.50;17.25;;;;;15.10;58.58;100542.44;146612;666;46020;-71
2024/01/20 05:50:16;;;;;;;;;24.25;21.50;;;;;15.11;58.04;100549.44;146610;696;46016;-72
2024/01/20 05:53:20;;;;;;;;;28.50;22.50;;;;;15.11;58.87;100562.50;146613;565;46010;-70
2024/01/20 05:56:25;;;;;;;;;26.25;25.25;;;;;15.09;59.27;100577.22;146609;574;46016;-70
2024/01/20 05:59:48;;;;;;;;;24.50;23.25;;;;;14.23;58.84;100435.31;146613;564;46010;-71
2024/01/20 06:02:58;;;;;;;;;27.75;22.25;;;;;15.03;59.58;100582.25;146608;586;46915;-72
2024/01/20 06:05:52;;;;;;;;;25.50;18.25;;;;;14.97;60.38;100592.50;146612;646;46021;-73
2024/01/20 06:08:50;;;;;;;;;18.75;17.00;;;;;14.89;61.02;100597.50;146611;564;46012;-74
2024/01/20 06:11:57;;;;;;;;;18.25;17.00;;;;;14.82;61.48;100584.19;146614;591;46010;-70
2024/01/20 06:15:11;;;;;;;;;17.00;16.25;;;;;14.71;61.59;100578.66;146609;691;46017;-69
2024/01/20 06:18:26;;;;;;;;;14.75;12.75;;;;;13.93;60.49;100461.28;146613;641;46010;-70
2024/01/20 06:21:32;;;;;;;;;15.00;12.50;;;;;14.58;61.64;100600.84;146608;590;46015;-70
2024/01/20 06:24:29;;;;;;;;;15.25;13.75;;;;;13.95;62.15;100493.50;146615;613;46010;-69
2024/01/20 06:27:35;;;;;;;;;15.00;12.75;;;;;14.54;61.95;100598.94;146610;573;46012;-70
2024/01/20 06:30:51;;;;;;;;;;;;;;;;;;;;;
2024/01/20 06:33:49;;;;;;;;;14.00;12.25;;;;;14.49;62.95;100592.69;146610;647;46913;-71
2024/01/20 06:36:55;;;;;;;;;15.25;13.00;;;;;14.48;61.94;100599.59;146613;630;46014;-72
2024/01/20 06:39:53;;;;;;;;;15.25;13.50;;;;;14.49;62.57;100584.84;146610;571;46915;-71
2024/01/20 06:43:28;;;;;;;;;15.50;15.50;;;;;14.53;62.13;100590.25;146611;608;47020;-72
2024/01/20 06:46:38;;;;;;;;;18.75;16.25;;;;;14.62;61.68;100591.41;146610;579;46012;-74
2024/01/20 06:49:42;;;;;;;;;62.75;47.50;;;;;14.64;62.87;100588.00;146613;594;46029;-74
2024/01/20 06:52:38;;;;;;;;;31.25;27.25;;;;;14.67;62.89;100585.50;146609;707;46916;-73
2024/01/20 06:55:56;;;;;;;;;19.25;17.50;;;;;14.74;62.34;100581.34;146605;654;46010;-72
2024/01/20 06:59:02;;;;;;;;;22.75;18.00;;;;;14.81;61.48;100585.03;146609;570;47013;-74
2024/01/20 07:02:11;;;;;;;;;18.25;12.50;;;;;14.15;61.31;100452.47;146613;618;47010;-70
2024/01/20 07:05:09;;;;;;;;;11.50;11.00;;;;;14.90;62.67;100580.13;146612;622;46012;-73
2024/01/20 07:08:16;;;;;;;;;9.50;8.00;;;;;14.92;62.41;100575.81;146614;698;47054;-73
2024/01/20 07:11:36;;;;;;;;;9.75;8.75;;;;;14.36;60.75;100460.97;146617;662;46036;-70
2024/01/20 07:14:43;;;;;;;;;26.75;25.50;;;;;15.02;61.86;100560.50;146621;608;46020;-70
2024/01/20 07:17:47;;;;;;;;;32.00;29.50;;;;;15.07;61.51;100563.22;146610;565;46012;-70
2024/01/20 07:20:56;;;;;;;;;49.50;40.25;;;;;14.75;60.64;100523.97;146615;599;46011;-71
2024/01/20 07:23:57;;;;;;;;;49.75;39.00;;;;;15.12;61.96;100572.09;146608;572;46016;-74
2024/01/20 07:26:54;;;;;;;;;48.75;39.25;;;;;15.14;61.83;100566.91;146609;582;46020;-71
2024/01/20 07:29:47;;;;;;;;;48.00;38.25;;;;;15.13;61.92;100572.97;146611;594;47016;-70
2024/01/20 07:32:58;;;;;;;;;45.25;36.75;;;;;15.14;61.47;100579.97;146611;671;46020;-71
2024/01/20 07:35:52;;;;;;;;;47.25;37.25;;;;;15.17;61.80;100603.56;146625;606;47012;-72
2024/01/20 07:38:50;;;;;;;;;48.25;39.25;;;;;15.19;61.92;100621.06;146630;572;45020;-72
2024/01/20 07:41:43;;;;;;;;;49.00;40.25;;;;;15.20;62.11;100628.06;146630;655;46012;-70
2024/01/20 07:44:44;;;;;;;;;53.25;43.25;;;;;15.26;62.32;100627.34;146635;565;45010;-70
2024/01/20 07:47:45;;;;;;;;;53.75;43.75;;;;;15.28;62.70;100643.09;146633;574;45012;-68
2024/01/20 07:50:48;;;;;;;;;51.25;41.75;;;;;15.22;63.24;100642.06;146633;587;45021;-71
2024/01/20 07:53:56;;;;;;;;;47.50;39.25;;;;;14.76;62.21;100564.88;146630;613;46012;-72
2024/01/20 07:57:03;;;;;;;;;48.00;37.50;;;;;15.18;62.90;100645.41;146628;633;46047;-71
2024/01/20 08:00:22;;;;;;;;;48.50;38.50;;;;;15.16;63.39;100643.59;146635;588;45016;-73
2024/01/20 08:03:19;;;;;;;;;50.75;40.50;;;;;15.13;63.96;100651.31;146634;802;45022;-72
2024/01/20 08:06:27;;;;;;;;;;;;;;;;;;;;;
2024/01/20 08:09:45;;;;;;;;;61.00;45.25;;;;;15.16;62.64;100657.53;146636;611;45010;-72
2024/01/20 08:12:47;;;;;;;;;49.25;39.50;;;;;15.22;63.33;100662.94;146631;596;45917;-71
2024/01/20 08:15:43;;;;;;;;;64.25;50.25;;;;;15.28;64.05;100653.53;146629;609;45020;-72
2024/01/20 08:18:38;;;;;;;;;59.00;47.50;;;;;15.33;64.04;100668.53;146629;628;46016;-71
2024/01/20 08:21:30;;;;;;;;;60.00;45.50;;;;;15.39;64.49;100663.50;146634;569;45021;-72
2024/01/20 08:24:22;;;;;;;;;49.75;40.00;;;;;15.47;63.61;100666.31;146631;625;45914;-71
2024/01/20 08:27:20;;;;;;;;;46.25;38.00;;;;;15.52;62.49;100675.19;146629;606;45027;-71
2024/01/20 08:30:29;;;;;;;;;55.00;43.25;;;;;14.46;61.90;100483.00;146635;614;45012;-75
2024/01/20 08:33:42;;;;;;;;;;;;;;;;;;;;;
2024/01/20 08:36:45;;;;;;;;;50.00;40.25;;;;;15.67;62.24;100657.41;146610;601;46912;-75
2024/01/20 08:39:52;;;;;;;;;36.50;29.75;;;;;15.75;61.89;100670.69;146612;629;46020;-72
2024/01/20 08:42:54;;;;;;;;;42.00;34.00;;;;;15.79;62.30;100672.53;146609;638;46013;-72
2024/01/20 08:45:52;;;;;;;;;46.50;37.00;;;;;15.84;64.33;100677.91;146614;705;46020;-74
2024/01/20 08:48:50;;;;;;;;;30.50;29.25;;;;;15.85;64.84;100677.06;146609;569;46015;-71
2024/01/20 08:51:52;;;;;;;;;45.25;35.75;;;;;15.87;64.94;100671.03;146613;579;47010;-71
2024/01/20 08:54:54;;;;;;;;;34.00;27.00;;;;;15.89;65.37;100671.09;146607;600;47016;-72
2024/01/20 08:57:47;;;;;;;;;34.00;28.00;;;;;15.90;66.13;100667.63;146607;570;46025;-71
2024/01/20 09:00:43;;;;;;;;;35.25;29.75;;;;;15.91;65.87;100651.97;146610;572;46016;-71
2024/01/20 09:04:00;;;;;;;;;;;;;;;;;;;;;
2024/01/20 09:07:04;;;;;;;;;38.50;32.25;;;;;16.01;64.38;100671.44;146609;614;47012;-71
2024/01/20 09:09:57;;;;;;;;;42.75;33.75;;;;;16.04;65.33;100662.78;146612;605;47014;-71
2024/01/20 09:12:56;;;;;;;;;50.50;39.50;;;;;16.07;65.48;100658.50;146611;631;46013;-71
2024/01/20 09:16:03;;;;;;;;;46.75;36.75;;;;;16.08;64.92;100647.22;146610;598;46010;-71
2024/01/20 09:19:13;;;;;;;;;48.25;36.50;;;;;14.81;63.48;100429.31;146608;634;46012;-71
2024/01/20 09:22:13;;;;;;;;;45.25;35.00;;;;;16.12;65.06;100671.72;146613;619;46010;-71
2024/01/20 09:25:06;;;;;;;;;40.00;34.00;;;;;16.14;64.36;100670.06;146600;563;47917;-72
2024/01/20 09:28:06;;;;;;;;;42.75;34.50;;;;;16.19;64.11;100678.91;146604;595;46021;-71
2024/01/20 09:31:04;;;;;;;;;53.50;42.00;;;;;16.23;63.98;100672.94;146610;696;46016;-71
2024/01/20 09:34:10;;;;;;;;;41.00;33.25;;;;;16.26;63.62;100674.72;146612;618;46010;-76
2024/01/20 09:37:05;;;;;;;;;33.50;30.50;;;;;16.27;64.64;100663.44;146612;565;46016;-71
2024/01/20 09:40:21;;;;;;;;;45.00;36.25;;;;;16.30;63.65;100668.75;146612;641;46020;-71
2024/01/20 09:43:26;;;;;;;;;41.25;34.00;;;;;16.35;63.19;100680.19;146608;569;46014;-71
2024/01/20 09:46:26;;;;;;;;;53.00;42.25;;;;;16.37;64.20;100673.28;146612;574;46020;-71
2024/01/20 09:49:26;;;;;;;;;55.00;44.00;;;;;16.39;63.79;100666.38;146608;569;46013;-71
2024/01/20 09:52:49;;;;;;;;;60.00;45.75;;;;;16.38;62.70;100669.81;146610;599;46014;-71
2024/01/20 09:55:52;;;;;;;;;61.50;48.00;;;;;16.35;63.94;100662.78;146607;566;47019;-71
2024/01/20 09:58:48;;;;;;;;;58.75;46.00;;;;;16.36;64.20;100655.81;146607;565;46020;-73
2024/01/20 10:01:52;;;;;;;;;125.33;104.00;;;;;16.36;64.71;100645.34;146613;615;46014;-71
2024/01/20 10:05:00;;;;;;;;;66.50;54.50;;;;;16.35;64.15;100641.88;146617;583;46010;-70
2024/01/20 10:07:57;;;;;;;;;72.75;60.50;;;;;16.32;65.78;100644.41;146610;624;46915;-72
2024/01/20 10:11:13;;;;;;;;;68.00;54.25;;;;;16.30;64.60;100643.47;146610;571;46015;-72
2024/01/20 10:14:11;;;;;;;;;77.00;70.33;;;;;16.28;65.81;100650.37;146612;654;46012;-71
2024/01/20 10:17:25;;;;;;;;;75.00;68.00;;;;;16.26;64.09;100662.53;146615;600;46010;-77
2024/01/20 10:20:32;;;;;;;;;83.33;74.67;;;;;16.25;65.54;100670.34;146610;689;46014;-74
2024/01/20 10:23:31;;;;;;;;;88.33;71.33;;;;;16.22;65.48;100668.53;146617;628;46020;-75
2024/01/20 10:26:25;;;;;;;;;75.00;66.33;;;;;16.23;65.67;100685.09;146611;585;48013;-77
2024/01/20 10:29:27;;;;;;;;;75.00;63.75;;;;;16.23;65.08;100679.88;146605;596;47010;-73
2024/01/20 10:32:35;;;;;;;;;73.67;63.67;;;;;16.26;65.50;100672.09;146608;686;46012;-71
2024/01/20 10:35:39;;;;;;;;;78.00;69.33;;;;;16.28;64.46;100671.31;146635;564;46014;-72
2024/01/20 10:39:14;;;;;;;;;74.00;62.33;;;;;16.32;63.87;100672.25;146634;620;45016;-72
2024/01/20 10:42:33;;;;;;;;;71.00;59.75;;;;;16.34;64.42;100667.97;146634;628;45010;-72
2024/01/20 10:46:00;;;;;;;;;78.67;69.33;;;;;16.38;64.14;100664.59;146634;600;45016;-71
2024/01/20 10:49:02;;;;;;;;;84.67;77.67;;;;;16.40;64.73;100668.13;146634;576;45021;-72
2024/01/20 10:52:02;;;;;;;;;82.67;73.00;;;;;16.42;64.73;100657.69;146639;636;46012;-71
2024/01/20 10:55:24;;;;;;;;;88.00;76.00;;;;;15.70;63.44;100537.25;146640;558;45010;-71
2024/01/20 10:58:48;;;;;;;;;;;;;;;;;;;;;
2024/01/20 11:02:08;;;;;;;;;73.00;64.00;;;;;16.37;64.33;100650.63;146630;687;44916;-74
2024/01/20 11:05:03;;;;;;;;;76.33;68.33;;;;;16.33;66.86;100653.13;146631;583;46017;-71
2024/01/20 11:08:13;;;;;;;;;75.25;66.75;;;;;16.30;66.49;100651.31;146624;624;46020;-74
2024/01/20 11:11:13;;;;;;;;;76.00;67.00;;;;;16.27;68.40;100629.41;146630;641;46014;-72
2024/01/20 11:14:11;;;;;;;;;74.33;66.00;;;;;16.22;69.46;100639.75;146640;598;45010;-72
2024/01/20 11:17:27;;;;;;;;;77.67;67.67;;;;;16.17;68.73;100672.75;146634;606;45016;-74
2024/01/20 11:20:22;;;;;;;;;58.00;43.50;;;;;16.11;68.71;100649.03;146639;564;45030;-71
2024/01/20 11:23:29;;;;;;;;;48.50;39.25;;;;;16.02;67.24;100646.19;146632;588;45012;-74
2024/01/20 11:26:26;;;;;;;;;57.75;43.25;;;;;15.98;67.99;100666.12;146634;572;45020;-73
2024/01/20 11:29:18;;;;;;;;;30.25;28.25;;;;;15.93;65.74;100665.09;146630;627;45914;-73
2024/01/20 11:32:16;;;;;;;;;55.50;44.00;;;;;15.86;66.08;100671.00;146627;578;45020;-73
2024/01/20 11:35:28;;;;;;;;;48.50;38.75;;;;;15.80;66.14;100676.06;146611;589;46017;-73
2024/01/20 11:38:23;;;;;;;;;42.75;35.00;;;;;15.72;67.69;100681.03;146612;610;46014;-74
2024/01/20 11:41:21;;;;;;;;;36.75;29.25;;;;;15.66;67.74;100676.47;146613;660;46017;-75
2024/01/20 11:44:35;;;;;;;;;;;;;;;;;;;;;
2024/01/20 11:47:30;;;;;;;;;40.50;33.00;;;;;15.54;67.10;100660.44;146611;629;46015;-75
2024/01/20 11:50:35;;;;;;;;;40.25;32.75;;;;;15.54;66.54;100647.34;146613;588;46020;-75
2024/01/20 11:53:43;;;;;;;;;40.75;32.75;;;;;15.57;66.51;100652.69;146611;615;46016;-76
2024/01/20 11:56:44;;;;;;;;;39.75;32.00;;;;;15.58;66.90;100679.72;146614;612;46011;-75
2024/01/20 11:59:40;;;;;;;;;31.75;29.25;;;;;15.55;65.92;100670.06;146610;640;46016;-74
2024/01/20 12:02:57;;;;;;;;;26.50;25.00;;;;;15.53;65.87;100653.44;146604;569;46021;-74
2024/01/20 12:05:52;;;;;;;;;29.50;24.25;;;;;15.51;64.70;100659.44;146607;591;46016;-74
2024/01/20 12:09:01;;;;;;;;;31.25;30.25;;;;;15.50;64.81;100652.47;146611;611;46020;-73
2024/01/20 12:12:06;;;;;;;;;33.25;30.50;;;;;15.52;65.27;100664.75;146608;664;46917;-74
2024/01/20 12:15:07;;;;;;;;;46.00;37.50;;;;;15.53;65.08;100671.72;146613;595;47010;-75
2024/01/20 12:18:20;;;;;;;;;21.50;18.50;;;;;15.48;63.03;100665.47;146610;670;46017;-73
2024/01/20 12:21:16;;;;;;;;;31.50;29.75;;;;;15.51;62.35;100685.59;146610;625;46010;-74
2024/01/20 12:24:15;;;;;;;;;28.50;25.75;;;;;15.52;62.51;100687.38;146608;569;47015;-74
2024/01/20 12:27:18;;;;;;;;;27.25;24.50;;;;;15.56;62.71;100684.00;146614;561;46010;-74
2024/01/20 12:30:30;;;;;;;;;39.50;32.00;;;;;15.66;62.62;100686.06;146609;629;46016;-74
2024/01/20 12:33:25;;;;;;;;;43.25;35.50;;;;;15.76;62.87;100682.91;146605;552;46021;-74
2024/01/20 12:36:24;;;;;;;;;42.75;35.25;;;;;15.81;62.74;100668.25;146608;588;46915;-75
2024/01/20 12:39:20;;;;;;;;;45.50;36.25;;;;;15.89;62.21;100677.22;146613;622;46010;-74
2024/01/20 12:42:32;;;;;;;;;47.75;38.00;;;;;15.92;61.30;100665.94;146609;593;46016;-74
2024/01/20 12:45:31;;;;;;;;;42.75;33.25;;;;;15.94;62.01;100659.03;146611;659;47010;-74
2024/01/20 12:48:28;;;;;;;;;41.25;34.25;;;;;15.95;61.61;100652.97;146611;578;46016;-74
2024/01/20 12:51:41;;;;;;;;;39.75;35.25;;;;;15.98;61.52;100673.06;146614;575;46020;-74
2024/01/20 12:54:36;;;;;;;;;41.00;32.50;;;;;15.93;62.44;100665.09;146605;576;46018;-74
2024/01/20 12:57:46;;;;;;;;;41.25;35.50;;;;;15.89;63.37;100668.47;146613;577;46014;-75
2024/01/20 13:01:04;;;;;;;;;42.50;34.75;;;;;15.83;61.90;100676.16;146609;576;46012;-74
2024/01/20 13:04:20;;;;;;;;;35.25;31.50;;;;;15.74;61.51;100675.88;146605;613;47021;-75
2024/01/20 13:07:33;;;;;;;;;43.00;34.00;;;;;15.66;61.20;100691.28;146610;625;46016;-75
2024/01/20 13:10:26;;;;;;;;;37.25;31.25;;;;;15.57;61.03;100691.88;146613;611;46037;-74
2024/01/20 13:13:25;;;;;;;;;46.25;38.25;;;;;15.44;60.83;100698.47;146610;584;46016;-74
2024/01/20 13:16:21;;;;;;;;;35.50;29.25;;;;;15.34;61.22;100717.31;146614;579;46028;-74
2024/01/20 13:19:24;;;;;;;;;36.00;29.75;;;;;15.23;60.17;100710.84;146609;583;46016;-74
2024/01/20 13:22:25;;;;;;;;;37.75;31.00;;;;;15.12;59.29;100726.19;146611;609;46020;-75
2024/01/20 13:25:30;;;;;;;;;35.00;30.25;;;;;15.05;59.98;100719.00;146610;622;46017;-74
2024/01/20 13:28:28;;;;;;;;;33.50;29.25;;;;;15.00;60.33;100721.44;146612;569;46020;-75
2024/01/20 13:31:34;;;;;;;;;25.25;21.50;;;;;14.94;60.50;100734.28;146609;669;46012;-74
2024/01/20 13:34:32;;;;;;;;;28.00;23.25;;;;;14.89;61.62;100748.00;146607;574;46020;-74
2024/01/20 13:37:35;;;;;;;;;33.50;30.00;;;;;14.79;61.67;100758.13;146609;666;46016;-76
2024/01/20 13:40:40;;;;;;;;;;;;;;;;;;;;;
2024/01/20 13:43:35;;;;;;;;;34.00;29.00;;;;;14.59;61.62;100755.69;146610;566;46014;-74
2024/01/20 13:46:30;;;;;;;;;26.50;23.25;;;;;14.45;61.52;100749.94;146613;594;46021;-74
2024/01/20 13:49:38;;;;;;;;;60.25;44.50;;;;;14.39;62.65;100748.00;146602;565;47916;-75
2024/01/20 13:52:50;;;;;;;;;54.00;43.50;;;;;14.39;64.49;100736.66;146614;628;46020;-74
2024/01/20 13:55:58;;;;;;;;;;;;;;;;;;;;;
2024/01/20 13:58:56;;;;;;;;;76.00;64.50;;;;;14.36;66.19;100746.97;146612;593;46020;-74
2024/01/20 14:02:01;;;;;;;;;66.00;48.75;;;;;14.29;65.68;100744.16;146609;588;46012;-73
2024/01/20 14:05:04;;;;;;;;;52.25;40.50;;;;;14.19;65.18;100742.06;146607;624;46020;-74
2024/01/20 14:07:59;;;;;;;;;43.50;36.50;;;;;14.13;64.75;100754.84;146607;570;46016;-72
2024/01/20 14:11:04;;;;;;;;;;;;;;;;;;;;;
2024/01/20 14:14:04;;;;;;;;;51.25;40.00;;;;;14.01;64.34;100764.81;146610;563;46016;-72
2024/01/20 14:17:13;;;;;;;;;48.75;40.00;;;;;13.97;64.40;100776.84;146614;614;46021;-72
2024/01/20 14:20:32;;;;;;;;;43.75;37.00;;;;;13.32;63.62;100679.66;146609;699;46016;-74
2024/01/20 14:24:01;;;;;;;;;44.25;35.75;;;;;13.84;63.71;100793.75;146613;586;46021;-72